Urb Castillos del Mar, Puerto Rico
Current Conditions -  °F | °C
As of 2:53 AM on Sunday 23 Nov 2014 (Local Time) from TJNR Reporting Station
NA  
Wind Chill: 81°   Ceiling: NA
Heat Index: 85°   Visibility: 10mi
Dew Point: 72°   Wind: 9mph
Humidity: 74%   Direction: 80°E
Pressure: 30.01"   Gusts: NA
Location:  18.2667°N, 65.6476°W
Report Text: TJNR 230653Z AUTO 08008KT 10SM 27/22 A3001 RMK AO2 SLP161 T02720222 $
Loading
Personal Weather Stations






























Interactive Weather Map New forecast layout! Learn more

10-Day Weather Forecast

Advertisements
Track Severe Weather on mobile